AK4NG Weather Reports


Display with metric or nautical units.
time (UTC)temp
F
wind
direction
speed
MPH
gust
MPH
rain 1hr
in
rain 24hr
in
rain mn
in
humidity
%
barometer
mb
20220705134117 81 263 2.0 2.0 0.00 0.00 0.00 83 1020.4
20220705133616 81 299 3.0 3.0 0.00 0.00 0.00 82 1020.6
20220705133114 81 282 2.0 2.0 0.00 0.00 0.00 83 1020.6
20220705132615 82 277 0.0 0.0 0.00 0.00 0.00 83 1020.4
20220705132113 82 331 0.0 0.0 0.00 0.00 0.00 80 1020.4
20220705131613 82 306 0.0 0.0 0.00 0.00 0.00 81 1020.4
20220705131112 80 211 0.0 1.0 0.00 0.00 0.00 85 1020.5
20220705130611 80 233 1.0 2.0 0.00 0.00 0.00 84 1020.6
20220705130109 80 267 0.0 0.0 0.00 0.00 0.00 86 1020.6
20220705125608 80 302 2.0 2.0 0.00 0.00 0.00 84 1020.5
20220705125107 79 202 1.0 1.0 0.00 0.00 0.00 86 1020.3
20220705124606 79 285 0.0 0.0 0.00 0.00 0.00 87 1020.4
20220705124105 78 250 0.0 0.0 0.00 0.00 0.00 90 1020.4
20220705123604 78 249 0.0 0.0 0.00 0.00 0.00 90 1020.4
20220705123103 78 262 0.0 0.0 0.00 0.00 0.00 90 1020.1
20220705122604 77 246 1.0 1.0 0.00 0.00 0.00 93 1020.2
20220705122103 75 304 1.0 1.0 0.00 0.00 0.00 96 1020.0
20220705121602 75 272 0.0 0.0 0.00 0.00 0.00 98 1020.2
20220705121102 74 285 3.0 3.0 0.00 0.00 0.00 99 1020.2
20220705120601 74 285 0.0 0.0 0.00 0.00 0.00 99 1019.9
20220705120100 73 255 0.0 0.0 0.00 0.00 0.00 99 1020.1
20220705115559 73 252 0.0 0.0 0.00 0.00 0.00 99 1019.9
20220705115059 73 248 0.0 0.0 0.00 0.00 0.00 99 1019.9
20220705114557 73 248 0.0 0.0 0.00 0.00 0.00 99 1020.0
20220705114057 73 241 0.0 0.0 0.00 0.00 0.00 99 1020.0
20220705113556 72 241 0.0 0.0 0.00 0.00 0.00 99 1020.1
20220705113055 72 240 0.0 0.0 0.00 0.00 0.00 99 1019.9
20220705112555 72 240 0.0 0.0 0.00 0.00 0.00 99 1019.9
20220705112053 71 240 0.0 0.0 0.00 0.00 0.00 99 1020.0
20220705111552 71 241 0.0 0.0 0.00 0.00 0.00 99 1019.7
20220705111051 71 240 0.0 0.0 0.00 0.00 0.00 99 1020.0
20220705110550 71 240 0.0 0.0 0.00 0.00 0.00 99 1019.9
20220705110049 71 240 0.0 0.0 0.00 0.00 0.00 99 1019.6
20220705105547 71 240 0.0 0.0 0.00 0.00 0.00 99 1019.7
20220705105046 71 240 0.0 0.0 0.00 0.00 0.00 99 1019.4
20220705104545 71 240 0.0 0.0 0.00 0.00 0.00 99 1019.5
20220705104044 71 240 0.0 0.0 0.00 0.00 0.00 99 1019.6
20220705103543 71 240 0.0 0.0 0.00 0.00 0.00 99 1019.6
20220705103042 71 240 0.0 0.0 0.00 0.00 0.00 99 1019.6
20220705102542 71 240 0.0 0.0 0.00 0.00 0.00 99 1019.5
20220705102041 71 240 0.0 0.0 0.00 0.00 0.00 99 1019.5
20220705101540 71 240 0.0 0.0 0.00 0.00 0.00 99 1019.5
20220705101039 71 241 0.0 0.0 0.00 0.00 0.00 99 1019.5
20220705100539 72 209 0.0 0.0 0.00 0.00 0.00 99 1019.5
20220705100038 72 209 0.0 0.0 0.00 0.00 0.00 99 1019.3
20220705095536 72 208 0.0 0.0 0.00 0.00 0.00 99 1019.2
20220705095035 72 208 0.0 0.0 0.00 0.00 0.00 99 1019.1
20220705094535 72 208 0.0 0.0 0.00 0.00 0.00 99 1019.0
20220705094034 72 208 0.0 0.0 0.00 0.00 0.00 99 1018.8
20220705093532 72 208 0.0 0.0 0.00 0.00 0.00 99 1018.8
20220705093033 72 208 0.0 0.0 0.00 0.00 0.00 99 1019.1
20220705092531 72 208 0.0 0.0 0.00 0.00 0.00 99 1019.0
20220705092031 72 208 0.0 0.0 0.00 0.00 0.00 99 1018.9
20220705091531 72 207 0.0 0.0 0.00 0.00 0.00 99 1018.8
20220705091029 72 208 0.0 0.0 0.00 0.00 0.00 99 1018.7
20220705090529 72 208 0.0 0.0 0.00 0.00 0.00 99 1018.9
20220705090027 72 209 0.0 0.0 0.00 0.00 0.00 99 1018.8
20220705085528 72 208 0.0 0.0 0.00 0.00 0.00 99 1018.7
20220705085027 72 208 0.0 0.0 0.00 0.00 0.00 99 1018.8
20220705084526 72 208 0.0 0.0 0.00 0.00 0.00 99 1018.7
20220705084025 72 208 0.0 0.0 0.00 0.00 0.00 99 1018.5
20220705083524 72 208 0.0 0.0 0.00 0.00 0.00 99 1018.5
20220705083024 72 207 0.0 0.0 0.00 0.00 0.00 99 1018.6
20220705082523 73 208 0.0 0.0 0.00 0.00 0.00 99 1018.5
20220705082024 72 208 0.0 0.0 0.00 0.00 0.00 99 1018.7
20220705081522 72 207 0.0 0.0 0.00 0.00 0.00 99 1018.5
20220705081022 73 207 0.0 0.0 0.00 0.00 0.00 99 1018.6
20220705080522 73 207 0.0 0.0 0.00 0.00 0.00 99 1018.7
20220705080021 73 276 0.0 0.0 0.00 0.00 0.00 99 1018.6
20220705075519 73 278 0.0 0.0 0.00 0.00 0.00 99 1018.6
20220705075020 73 263 0.0 0.0 0.00 0.00 0.00 99 1018.7
20220705074519 73 263 0.0 0.0 0.00 0.00 0.00 99 1018.5
20220705074018 73 263 0.0 0.0 0.00 0.00 0.00 99 1018.6
20220705073516 73 290 0.0 0.0 0.00 0.00 0.00 99 1018.5
20220705073017 73 287 0.0 0.0 0.00 0.00 0.00 99 1018.7
20220705072515 73 261 0.0 0.0 0.00 0.00 0.00 99 1018.8
20220705072013 73 261 0.0 0.0 0.00 0.00 0.00 99 1018.8
20220705071511 73 261 0.0 0.0 0.00 0.00 0.00 99 1019.0
20220705071010 73 261 0.0 0.0 0.00 0.00 0.00 99 1019.1
20220705070509 73 261 0.0 0.0 0.00 0.00 0.00 99 1019.2
20220705070008 74 261 0.0 0.0 0.00 0.00 0.00 99 1019.2
20220705065506 74 260 0.0 0.0 0.00 0.00 0.00 99 1019.0
20220705065005 74 261 0.0 0.0 0.00 0.00 0.00 99 1018.9
20220705064503 74 264 0.0 0.0 0.00 0.00 0.00 99 1019.2
20220705064003 74 262 0.0 0.0 0.00 0.00 0.00 99 1019.2
20220705063502 74 262 0.0 0.0 0.00 0.00 0.00 99 1019.2
20220705063001 74 295 0.0 0.0 0.00 0.00 0.00 99 1019.2
20220705062459 74 271 0.0 0.0 0.00 0.00 0.00 99 1019.4
20220705061958 74 278 0.0 0.0 0.00 0.00 0.00 98 1019.4
20220705061456 74 280 0.0 0.0 0.00 0.00 0.00 98 1019.3
20220705060955 74 281 0.0 0.0 0.00 0.00 0.00 98 1019.4
20220705060453 74 282 0.0 0.0 0.00 0.00 0.00 98 1019.5
20220705055954 74 282 0.0 1.0 0.00 0.00 0.00 98 1019.6
20220705055452 74 268 0.0 0.0 0.00 0.00 0.00 98 1019.7
20220705054950 74 268 0.0 0.0 0.00 0.00 0.00 98 1019.6
20220705054449 74 269 0.0 0.0 0.00 0.00 0.00 98 1019.3
20220705053949 74 267 0.0 0.0 0.00 0.00 0.00 98 1019.7
20220705053448 75 296 0.0 0.0 0.00 0.00 0.00 98 1019.6
20220705052948 75 226 0.0 0.0 0.00 0.00 0.00 98 1019.6
20220705052447 75 249 0.0 0.0 0.00 0.00 0.00 97 1019.5
20220705051946 75 265 0.0 0.0 0.00 0.00 0.00 97 1019.7
20220705051444 75 279 0.0 0.0 0.00 0.00 0.00 97 1019.9
20220705050943 75 258 0.0 0.0 0.00 0.00 0.00 97 1019.9
20220705050441 75 257 0.0 0.0 0.00 0.00 0.00 97 1019.9
20220705045940 75 257 0.0 0.0 0.00 0.00 0.00 97 1019.9
20220705045439 75 258 0.0 0.0 0.00 0.00 0.00 96 1019.8
20220705044938 75 271 0.0 0.0 0.00 0.00 0.00 96 1019.7
20220705044436 75 279 1.0 2.0 0.00 0.00 0.00 96 1019.8
20220705043935 75 286 0.0 0.0 0.00 0.00 0.00 96 1019.9
20220705043434 75 284 0.0 0.0 0.00 0.00 0.00 96 1019.9
20220705042933 76 284 0.0 0.0 0.00 0.00 0.00 96 1019.9
20220705042433 76 285 0.0 0.0 0.00 0.00 0.00 96 1020.1
20220705041932 76 282 0.0 0.0 0.00 0.00 0.00 95 1020.1
20220705041433 76 265 0.0 0.0 0.00 0.00 0.00 96 1019.9
20220705040932 76 265 0.0 0.0 0.00 0.00 0.00 95 1019.8
20220705040431 76 250 1.0 1.0 0.00 0.00 0.00 96 1020.1
20220705035931 76 280 0.0 0.0 0.00 0.00 0.00 96 1020.2
20220705035429 76 252 0.0 0.0 0.00 0.00 0.00 96 1019.9
20220705034928 76 254 0.0 0.0 0.00 0.00 0.00 96 1019.9
20220705034426 76 196 0.0 0.0 0.00 0.00 0.00 96 1020.1
20220705033926 76 196 0.0 0.0 0.00 0.00 0.00 96 1019.9
20220705033425 76 195 0.0 0.0 0.00 0.00 0.00 95 1020.0
20220705032924 76 194 0.0 0.0 0.00 0.00 0.00 95 1020.0
20220705032423 77 193 0.0 0.0 0.00 0.00 0.00 95 1019.8
20220705031922 77 291 0.0 0.0 0.00 0.00 0.00 94 1019.8
20220705031420 77 286 0.0 0.0 0.00 0.00 0.00 93 1019.7
20220705030919 77 268 0.0 0.0 0.00 0.00 0.00 93 1019.4
20220705030418 78 285 0.0 0.0 0.00 0.00 0.00 92 1019.5
20220705025917 78 267 0.0 1.0 0.00 0.00 0.00 92 1019.3
20220705025415 78 261 0.0 0.0 0.00 0.00 0.00 92 1019.5
20220705024914 78 289 0.0 0.0 0.00 0.00 0.00 92 1019.6
20220705024412 78 296 1.0 2.0 0.00 0.00 0.00 93 1019.4
20220705023911 78 224 0.0 0.0 0.00 0.00 0.00 94 1019.4
20220705023410 78 224 0.0 0.0 0.00 0.00 0.00 93 1019.5
20220705022910 78 224 0.0 0.0 0.00 0.00 0.00 93 1019.3
20220705022409 78 225 0.0 0.0 0.00 0.00 0.00 93 1019.0
20220705021910 78 225 0.0 0.0 0.00 0.00 0.00 93 1019.2
20220705021408 78 224 0.0 0.0 0.00 0.00 0.00 93 1019.3
20220705020906 79 224 0.0 0.0 0.00 0.00 0.00 92 1019.3
20220705020405 79 224 0.0 0.0 0.00 0.00 0.00 91 1019.3
20220705015906 79 264 0.0 0.0 0.00 0.00 0.00 89 1019.3
20220705015404 80 289 0.0 0.0 0.00 0.00 0.00 89 1019.4
20220705014902 80 283 0.0 0.0 0.00 0.00 0.00 89 1019.5
20220705014401 80 241 0.0 1.0 0.00 0.00 0.00 89 1019.5
20220705013900 80 257 0.0 0.0 0.00 0.00 0.00 89 1019.3
20220705013359 80 279 0.0 0.0 0.00 0.00 0.00 90 1019.3
20220705012858 80 279 0.0 0.0 0.00 0.00 0.00 90 1019.4
20220705012357 80 279 0.0 0.0 0.00 0.00 0.00 88 1019.3
20220705011858 80 238 0.0 0.0 0.00 0.00 0.00 89 1019.2
20220705011356 81 238 0.0 0.0 0.00 0.00 0.00 87 1018.9
20220705010857 81 274 1.0 1.0 0.00 0.00 0.00 87 1019.0
20220705010355 80 35 2.0 2.0 0.00 0.00 0.00 88 1018.8
20220705005853 80 253 0.0 0.0 0.00 0.00 0.00 90 1018.9
20220705005352 81 253 0.0 0.0 0.00 0.00 0.00 89 1018.9
20220705004851 81 253 0.0 0.0 0.00 0.00 0.00 88 1019.0
20220705004351 81 253 0.0 0.0 0.00 0.00 0.00 87 1019.0
20220705003851 81 253 0.0 0.0 0.00 0.00 0.00 86 1019.0
20220705003349 81 252 0.0 0.0 0.00 0.00 0.00 85 1018.9
20220705002848 82 263 0.0 0.0 0.00 0.00 0.00 85 1018.8
20220705002347 82 164 0.0 0.0 0.00 0.00 0.00 85 1018.9
20220705001846 82 161 0.0 0.0 0.00 0.00 0.00 85 1019.1
20220705001346 82 162 0.0 0.0 0.00 0.00 0.00 84 1019.3
20220705000845 82 188 0.0 0.0 0.00 0.00 0.00 85 1019.2
20220705000343 83 278 0.0 0.0 0.00 0.00 0.00 82 1019.6
20220704235842 83 278 0.0 0.0 0.00 0.00 0.00 81 1019.2
20220704235341 83 278 0.0 0.0 0.00 0.00 0.00 79 1019.2
20220704234840 84 279 0.0 0.0 0.00 0.00 0.00 79 1018.8
20220704234339 84 228 1.0 1.0 0.00 0.00 0.00 79 1018.8
20220704233839 84 225 1.0 1.0 0.00 0.00 0.00 80 1018.9
20220704233338 85 145 0.0 1.0 0.00 0.00 0.00 76 1018.9
20220704232836 86 66 0.0 0.0 0.00 0.00 0.00 76 1018.9
20220704232335 86 159 1.0 1.0 0.00 0.00 0.00 75 1018.6
20220704231834 86 293 0.0 0.0 0.00 0.00 0.00 74 1018.4
20220704231332 87 299 4.0 6.0 0.00 0.00 0.00 73 1018.6
20220704230831 87 208 0.0 0.0 0.00 0.00 0.00 73 1018.4
20220704230332 87 231 6.0 7.0 0.00 0.00 0.00 76 1018.4
20220704225830 88 320 3.0 6.0 0.00 0.00 0.00 73 1018.3
20220704225330 88 284 3.0 3.0 0.00 0.00 0.00 73 1018.3
20220704224828 87 211 3.0 5.0 0.00 0.00 0.00 74 1018.2
20220704224327 88 296 3.0 3.0 0.00 0.00 0.00 73 1018.4
20220704223826 88 100 2.0 3.0 0.00 0.00 0.00 75 1018.5
20220704223325 88 262 2.0 5.0 0.00 0.00 0.00 74 1018.4
20220704222824 88 323 5.0 7.0 0.00 0.00 0.00 73 1018.2
20220704222325 87 210 2.0 2.0 0.00 0.00 0.00 75 1018.4
20220704221823 87 217 3.0 5.0 0.00 0.00 0.00 76 1018.6
20220704221321 87 290 6.0 8.0 0.00 0.00 0.00 74 1018.4
20220704220820 87 251 1.0 2.0 0.00 0.00 0.00 75 1018.6
20220704220318 87 228 1.0 1.0 0.00 0.00 0.00 74 1018.4
20220704215818 86 29 3.0 6.0 0.00 0.00 0.00 75 1018.6
20220704215316 86 218 2.0 8.0 0.00 0.00 0.00 76 1018.5
20220704214816 85 203 4.0 5.0 0.00 0.00 0.00 78 1018.3
20220704214315 84 276 0.0 1.0 0.00 0.00 0.00 81 1018.3
20220704213814 84 47 4.0 6.0 0.00 0.00 0.00 80 1018.6
20220704213312 84 140 0.0 1.0 0.00 0.00 0.00 79 1018.5
20220704212811 84 214 2.0 3.0 0.00 0.00 0.00 78 1018.4
20220704212310 85 206 3.0 5.0 0.00 0.00 0.00 78 1018.5
20220704211808 86 166 4.0 6.0 0.00 0.00 0.00 77 1018.8
20220704211307 86 216 1.0 2.0 0.00 0.00 0.00 77 1018.3
20220704210805 88 196 2.0 2.0 0.00 0.00 0.00 75 1018.1
20220704210304 89 154 4.0 6.0 0.00 0.00 0.00 71 1018.2
20220704205803 90 189 1.0 2.0 0.00 0.00 0.00 67 1018.2
20220704205302 92 296 3.0 5.0 0.00 0.00 0.00 63 1018.2
20220704204801 91 227 1.0 1.0 0.00 0.00 0.00 61 1018.2
20220704204300 92 190 2.0 2.0 0.00 0.00 0.00 60 1018.2
20220704203800 92 287 3.0 3.0 0.00 0.00 0.00 58 1018.1
20220704203258 93 38 0.0 1.0 0.00 0.00 0.00 57 1018.3
20220704202756 92 253 1.0 1.0 0.00 0.00 0.00 57 1018.4
20220704202254 93 168 2.0 2.0 0.00 0.00 0.00 55 1018.4
20220704201753 92 322 0.0 0.0 0.00 0.00 0.00 59 1018.2
20220704201252 93 237 0.0 0.0 0.00 0.00 0.00 54 1018.5
20220704200751 91 261 1.0 2.0 0.00 0.00 0.00 56 1018.2
20220704200249 92 233 0.0 0.0 0.00 0.00 0.00 62 1018.7
20220704195748 92 232 0.0 0.0 0.00 0.00 0.00 57 1018.6
20220704195247 92 302 3.0 3.0 0.00 0.00 0.00 59 1018.7
20220704194745 91 237 1.0 2.0 0.00 0.00 0.00 60 1018.8
20220704194245 92 278 2.0 5.0 0.00 0.00 0.00 58 1018.7
20220704193743 94 288 0.0 2.0 0.00 0.00 0.00 58 1018.8
20220704193242 92 224 0.0 1.0 0.00 0.00 0.00 57 1018.9
20220704192742 92 224 0.0 1.0 0.00 0.00 0.00 57 1019.0
20220704192240 92 189 1.0 1.0 0.00 0.00 0.00 57 1019.1
20220704191739 90 265 3.0 3.0 0.00 0.00 0.00 60 1019.1
20220704191237 89 268 3.0 3.0 0.00 0.00 0.00 65 1019.0
20220704190735 89 207 1.0 1.0 0.00 0.00 0.00 61 1019.0
20220704190234 92 305 4.0 6.0 0.00 0.00 0.00 57 1019.0
20220704185733 91 192 1.0 2.0 0.00 0.00 0.00 60 1019.0
20220704185232 90 103 4.0 5.0 0.00 0.00 0.00 61 1019.2
20220704184731 90 156 3.0 3.0 0.00 0.00 0.00 66 1019.3
20220704184227 90 235 1.0 2.0 0.00 0.00 0.00 65 1019.2
20220704183728 89 311 1.0 2.0 0.00 0.00 0.00 68 1019.5
20220704183227 89 294 1.0 2.0 0.00 0.00 0.00 64 1019.7
20220704182726 89 191 1.0 1.0 0.00 0.00 0.00 63 1019.6
20220704182225 89 197 2.0 2.0 0.00 0.00 0.00 65 1019.6
20220704181724 89 188 2.0 3.0 0.00 0.00 0.00 66 1019.7
20220704181222 88 215 1.0 1.0 0.00 0.00 0.00 68 1019.9
20220704180721 90 43 4.0 5.0 0.00 0.00 0.00 66 1019.9
20220704180220 88 311 0.0 0.0 0.00 0.00 0.00 69 1020.2
20220704175719 88 335 1.0 1.0 0.00 0.00 0.00 66 1020.0
20220704175218 88 319 0.0 0.0 0.00 0.00 0.00 71 1020.3
20220704174717 89 234 2.0 2.0 0.00 0.00 0.00 67 1020.2
20220704174216 87 188 2.0 5.0 0.00 0.00 0.00 70 1020.1
20220704173714 88 236 0.0 0.0 0.00 0.00 0.00 71 1020.3
20220704173211 90 17 1.0 1.0 0.00 0.00 0.00 65 1020.3
20220704172711 89 283 2.0 2.0 0.00 0.00 0.00 67 1020.4
20220704172211 89 294 0.0 1.0 0.00 0.00 0.00 70 1020.3
20220704171709 88 259 2.0 3.0 0.00 0.00 0.00 69 1020.3
20220704171208 87 290 3.0 3.0 0.00 0.00 0.00 73 1020.5
20220704170706 87 264 0.0 0.0 0.00 0.00 0.00 74 1020.3
20220704170205 88 296 3.0 3.0 0.00 0.00 0.00 69 1020.7
20220704165705 88 318 1.0 2.0 0.00 0.00 0.00 73 1020.5
20220704165203 88 252 2.0 2.0 0.00 0.00 0.00 71 1020.8
20220704164702 88 207 0.0 0.0 0.00 0.00 0.00 73 1020.8
20220704164200 88 284 1.0 2.0 0.00 0.00 0.00 71 1020.9
20220704163659 87 269 1.0 2.0 0.00 0.00 0.00 72 1021.1
20220704163159 87 206 1.0 2.0 0.00 0.00 0.00 69 1020.9
20220704162657 87 314 3.0 3.0 0.00 0.00 0.00 73 1020.8
20220704162156 87 34 1.0 2.0 0.00 0.00 0.00 75 1021.4
20220704161655 87 103 0.0 1.0 0.00 0.00 0.00 76 1021.5
20220704161155 87 261 3.0 3.0 0.00 0.00 0.00 74 1021.1
20220704160654 87 25 3.0 5.0 0.00 0.00 0.00 75 1021.4
20220704160153 86 6 0.0 1.0 0.00 0.00 0.00 76 1021.1
20220704155652 84 70 1.0 2.0 0.00 0.00 0.00 78 1021.5
20220704155152 85 37 0.0 0.0 0.00 0.00 0.00 78 1021.5
20220704154650 86 102 0.0 0.0 0.00 0.00 0.00 75 1021.5
20220704154149 83 313 2.0 2.0 0.00 0.00 0.00 79 1021.6
20220704153647 83 280 1.0 1.0 0.00 0.00 0.00 81 1021.7
20220704153147 84 250 1.0 1.0 0.00 0.00 0.00 79 1021.7
20220704152646 84 207 4.0 5.0 0.00 0.00 0.00 81 1021.6
20220704152144 82 272 3.0 3.0 0.00 0.00 0.00 81 1021.7
20220704151644 82 63 1.0 1.0 0.00 0.00 0.00 83 1021.7
20220704151143 82 280 3.0 3.0 0.00 0.00 0.00 83 1021.9
20220704150642 83 301 3.0 3.0 0.00 0.00 0.00 83 1021.7
20220704150140 82 284 5.0 6.0 0.00 0.00 0.00 85 1021.7
20220704145639 82 26 2.0 2.0 0.00 0.00 0.00 84 1021.6
20220704145138 82 153 0.0 1.0 0.00 0.00 0.00 86 1021.6
20220704144637 82 332 3.0 3.0 0.00 0.00 0.00 85 1021.5
20220704144137 82 313 2.0 2.0 0.00 0.00 0.00 85 1021.5
20220704143637 82 250 0.0 1.0 0.00 0.00 0.00 86 1021.5
20220704143136 82 271 1.0 1.0 0.00 0.00 0.00 84 1021.5
20220704142636 81 52 2.0 2.0 0.00 0.00 0.00 86 1021.6
20220704142136 80 32 0.0 1.0 0.00 0.00 0.00 89 1021.4
20220704141635 80 309 3.0 5.0 0.00 0.00 0.00 89 1021.5
20220704141135 79 263 2.0 2.0 0.00 0.00 0.00 91 1021.5
20220704140634 80 302 4.0 5.0 0.00 0.00 0.00 89 1021.3
20220704140133 79 324 2.0 2.0 0.00 0.00 0.00 90 1021.5
20220704135631 79 260 2.0 3.0 0.00 0.00 0.00 92 1021.6
20220704135132 79 259 2.0 3.0 0.00 0.00 0.00 91 1021.6
20220704134630 80 259 4.0 5.0 0.00 0.00 0.00 90 1021.8